Time;durP1;ratioP1;P1;durP2;ratioP2;P2;SDS_P1;SDS_P2;PMS_P1;PMS_P2;Temp;Humidity;BMP_temperature;BMP_pressure;BME280_temperature;BME280_humidity;BME280_pressure;Samples;Min_cycle;Max_cycle;Signal;HPM_P1;HPM_P2
2022/05/10 00:01:21;;;;;;;;;;;;;;;;;;6129114;22;19994;-57
2022/05/10 00:03:46;;;;;;;;;;;;;;;;;;6230772;22;19909;-57
2022/05/10 00:06:12;;;;;;;;;;;;;;;;;;6138320;23;19912;-57
2022/05/10 00:08:39;;;;;;;;;;;;;;;;;;6233477;22;20340;-57
2022/05/10 00:11:16;;;;;;;;;;;;;;;;;;6140383;23;19923;-56
2022/05/10 00:13:41;;;;;;;;;;;;;;;;;;6232250;22;19924;-57
2022/05/10 00:16:07;;;;;;;;;;;;;;;;;;6232897;22;19962;-57
2022/05/10 00:18:33;;;;;;;;;;;;;;;;;;6139982;23;19921;-57
2022/05/10 00:20:58;;;;;;;;;;;;;;;;;;6139751;23;20381;-57
2022/05/10 00:23:25;;;;;;;;;;;;;;;;;;6240063;22;19909;-56
2022/05/10 00:25:53;;;;;;;;;;;;;;;;;;6140322;23;20606;-57
2022/05/10 00:28:18;;;;;;;;;;;;;;;;;;6232075;22;19970;-57
2022/05/10 00:30:43;;;;;;;;;;;;;;;;;;6206831;23;19920;-57
2022/05/10 00:33:09;;;;;;;;;;;;;;;;;;6242955;22;19994;-57
2022/05/10 00:35:34;;;;;;;;;;;;;;;;;;6138330;23;19935;-58
2022/05/10 00:38:00;;;;;;;;;;;;;;;;;;6138214;23;19936;-57
2022/05/10 00:40:25;;;;;;;;;;;;;;;;;;6139857;23;19916;-57
2022/05/10 00:42:51;;;;;;;;;;;;;;;;;;6138896;23;20025;-57
2022/05/10 00:45:16;;;;;;;;;;;;;;;;;;6243343;22;19916;-58
2022/05/10 00:47:41;;;;;;;;;;;;;;;;;;6141154;23;19913;-58
2022/05/10 00:50:07;;;;;;;;;;;;;;;;;;6139096;23;20846;-58
2022/05/10 00:52:34;;;;;;;;;;;;;;;;;;6207082;23;19912;-58
2022/05/10 00:55:05;;;;;;;;;;;;;;;;;;6232699;22;19913;-57
2022/05/10 00:57:33;;;;;;;;;;;;;;;;;;6139858;23;20537;-57
2022/05/10 00:59:59;;;;;;;;;;;;;;;;;;6139844;23;19912;-57
2022/05/10 01:02:26;;;;;;;;;;;;;;;;;;6232433;22;20015;-56
2022/05/10 01:04:52;;;;;;;;;;;;;;;;;;6128975;23;20015;-57
2022/05/10 01:07:18;;;;;;;;;;;;;;;;;;6230931;22;19927;-57
2022/05/10 01:09:43;;;;;;;;;;;;;;;;;;6231575;22;19951;-58
2022/05/10 01:12:13;;;;;;;;;;;;;;;;;;6262751;22;19915;-57
2022/05/10 01:14:38;;;;;;;;;;;;;;;;;;6263454;22;20028;-57
2022/05/10 01:17:06;;;;;;;;;;;;;;;;;;6227292;22;20435;-57
2022/05/10 01:19:34;;;;;;;;;;;;;;;;;;6254439;22;19918;-56
2022/05/10 01:21:59;;;;;;;;;;;;;;;;;;6253939;22;19918;-56
2022/05/10 01:24:25;;;;;;;;;;;;;;;;;;6265232;22;20330;-56
2022/05/10 01:26:53;;;;;;;;;;;;;;;;;;6250834;22;20387;-57
2022/05/10 01:29:18;;;;;;;;;;;;;;;;;;6265291;22;19912;-57
2022/05/10 01:31:44;;;;;;;;;;;;;;;;;;6264013;22;19911;-57
2022/05/10 01:34:09;;;;;;;;;;;;;;;;;;6226485;22;19916;-57
2022/05/10 01:36:34;;;;;;;;;;;;;;;;;;6226307;22;20458;-57
2022/05/10 01:39:02;;;;;;;;;;;;;;;;;;6262914;22;20025;-57
2022/05/10 01:41:27;;;;;;;;;;;;;;;;;;6263686;22;19917;-57
2022/05/10 01:43:52;;;;;;;;;;;;;;;;;;6252030;22;19986;-57
2022/05/10 01:46:18;;;;;;;;;;;;;;;;;;6262365;22;19911;-57
2022/05/10 01:48:46;;;;;;;;;;;;;;;;;;6264367;22;19993;-58
2022/05/10 01:51:11;;;;;;;;;;;;;;;;;;6252809;22;20268;-57
2022/05/10 01:53:36;;;;;;;;;;;;;;;;;;6264846;22;19929;-57
2022/05/10 01:56:01;;;;;;;;;;;;;;;;;;6264113;22;19915;-57
2022/05/10 01:58:27;;;;;;;;;;;;;;;;;;6227892;22;20643;-56
2022/05/10 02:00:55;;;;;;;;;;;;;;;;;;6253103;22;19911;-56
2022/05/10 02:03:20;;;;;;;;;;;;;;;;;;6251890;22;19967;-57
2022/05/10 02:05:45;;;;;;;;;;;;;;;;;;6252572;22;20618;-57
2022/05/10 02:08:10;;;;;;;;;;;;;;;;;;6264944;22;20331;-57
2022/05/10 02:10:40;;;;;;;;;;;;;;;;;;6253507;22;19942;-57
2022/05/10 02:13:05;;;;;;;;;;;;;;;;;;6252883;22;19915;-57
2022/05/10 02:15:33;;;;;;;;;;;;;;;;;;6253521;22;19915;-57
2022/05/10 02:17:58;;;;;;;;;;;;;;;;;;6264324;22;20287;-57
2022/05/10 02:20:28;;;;;;;;;;;;;;;;;;6264795;22;19907;-57
2022/05/10 02:22:55;;;;;;;;;;;;;;;;;;6261256;22;19919;-58
2022/05/10 02:25:26;;;;;;;;;;;;;;;;;;6263814;22;19911;-57
2022/05/10 02:27:51;;;;;;;;;;;;;;;;;;6253948;22;19911;-58
2022/05/10 02:30:18;;;;;;;;;;;;;;;;;;6267141;22;20635;-57
2022/05/10 02:35:30;;;;;;;;;;;;;;;;;;6264482;22;20461;-55
2022/05/10 02:37:55;;;;;;;;;;;;;;;;;;6265511;22;20010;-56
2022/05/10 02:40:21;;;;;;;;;;;;;;;;;;6255866;22;20235;-57
2022/05/10 02:42:48;;;;;;;;;;;;;;;;;;6252508;22;19994;-57
2022/05/10 02:45:18;;;;;;;;;;;;;;;;;;6261981;22;19978;-55
2022/05/10 02:47:45;;;;;;;;;;;;;;;;;;6265681;22;19939;-57
2022/05/10 02:50:15;;;;;;;;;;;;;;;;;;6263671;22;19978;-57
2022/05/10 02:52:40;;;;;;;;;;;;;;;;;;6252416;22;20461;-57
2022/05/10 02:55:08;;;;;;;;;;;;;;;;;;6263292;22;19918;-58
2022/05/10 02:57:36;;;;;;;;;;;;;;;;;;6263492;22;19973;-59
2022/05/10 03:00:01;;;;;;;;;;;;;;;;;;6254531;22;20277;-57
2022/05/10 03:02:27;;;;;;;;;;;;;;;;;;6266348;22;19911;-58
2022/05/10 03:04:53;;;;;;;;;;;;;;;;;;6252907;22;19937;-58
2022/05/10 03:07:18;;;;;;;;;;;;;;;;;;6264262;22;20487;-57
2022/05/10 03:09:43;;;;;;;;;;;;;;;;;;6253669;22;19915;-57
2022/05/10 03:12:08;;;;;;;;;;;;;;;;;;6231340;22;20668;-58
2022/05/10 03:14:33;;;;;;;;;;;;;;;;;;6208433;23;19913;-58
2022/05/10 03:17:03;;;;;;;;;;;;;;;;;;6126799;23;19963;-58
2022/05/10 03:19:29;;;;;;;;;;;;;;;;;;6206235;22;20696;-57
2022/05/10 03:21:57;;;;;;;;;;;;;;;;;;6141268;23;19913;-58
2022/05/10 03:24:25;;;;;;;;;;;;;;;;;;6141736;23;19908;-57
2022/05/10 03:26:50;;;;;;;;;;;;;;;;;;6247767;22;19943;-58
2022/05/10 03:32:32;;;;;;;;;;;;;;;;;;6143746;23;19935;-58
2022/05/10 03:34:57;;;;;;;;;;;;;;;;;;6233441;22;19920;-58
2022/05/10 03:37:25;;;;;;;;;;;;;;;;;;6138960;23;19935;-58
2022/05/10 03:39:51;;;;;;;;;;;;;;;;;;6130130;22;19913;-57
2022/05/10 03:42:19;;;;;;;;;;;;;;;;;;6232295;22;19908;-57
2022/05/10 03:44:44;;;;;;;;;;;;;;;;;;6234558;22;19919;-57
2022/05/10 03:47:09;;;;;;;;;;;;;;;;;;6206050;23;20393;-57
2022/05/10 03:49:37;;;;;;;;;;;;;;;;;;6207644;22;19912;-57
2022/05/10 03:52:05;;;;;;;;;;;;;;;;;;6234513;22;20499;-58
2022/05/10 03:54:30;;;;;;;;;;;;;;;;;;6233138;22;19988;-57
2022/05/10 03:56:56;;;;;;;;;;;;;;;;;;6141799;23;19939;-57
2022/05/10 03:59:21;;;;;;;;;;;;;;;;;;6210129;23;19912;-57
2022/05/10 04:01:46;;;;;;;;;;;;;;;;;;6235546;22;19988;-57
2022/05/10 04:04:17;;;;;;;;;;;;;;;;;;6138254;23;20007;-57
2022/05/10 04:06:43;;;;;;;;;;;;;;;;;;6142560;23;19963;-57
2022/05/10 04:09:08;;;;;;;;;;;;;;;;;;6235487;22;19908;-57
2022/05/10 04:11:35;;;;;;;;;;;;;;;;;;6235554;22;19917;-58
2022/05/10 04:14:03;;;;;;;;;;;;;;;;;;6141541;23;19987;-58
2022/05/10 04:16:31;;;;;;;;;;;;;;;;;;6133841;23;20360;-57
2022/05/10 04:18:56;;;;;;;;;;;;;;;;;;6139351;23;20454;-58
2022/05/10 04:21:21;;;;;;;;;;;;;;;;;;6235772;22;20042;-58
2022/05/10 04:23:47;;;;;;;;;;;;;;;;;;6235576;22;20007;-58
2022/05/10 04:26:13;;;;;;;;;;;;;;;;;;6235849;22;19981;-57
2022/05/10 04:28:38;;;;;;;;;;;;;;;;;;6236456;22;20665;-57
2022/05/10 04:34:20;;;;;;;;;;;;;;;;;;6140200;23;19939;-58
2022/05/10 04:42:28;;;;;;;;;;;;;;;;;;6235619;22;19921;-58
2022/05/10 04:45:05;;;;;;;;;;;;;;;;;;6233538;22;19924;-56
2022/05/10 04:47:33;;;;;;;;;;;;;;;;;;6243693;22;19916;-57
2022/05/10 04:49:58;;;;;;;;;;;;;;;;;;6140249;23;19966;-58
2022/05/10 04:55:40;;;;;;;;;;;;;;;;;;6141989;23;19994;-57
2022/05/10 04:58:05;;;;;;;;;;;;;;;;;;6235526;22;20635;-57
2022/05/10 05:00:30;;;;;;;;;;;;;;;;;;6235485;22;19915;-57
2022/05/10 05:02:58;;;;;;;;;;;;;;;;;;6141084;23;19913;-57
2022/05/10 05:05:23;;;;;;;;;;;;;;;;;;6234036;22;20352;-57
2022/05/10 05:07:51;;;;;;;;;;;;;;;;;;6233691;22;20249;-58
2022/05/10 05:10:16;;;;;;;;;;;;;;;;;;6141249;23;19919;-58
2022/05/10 05:12:42;;;;;;;;;;;;;;;;;;6235294;22;19927;-58
2022/05/10 05:15:09;;;;;;;;;;;;;;;;;;6141046;23;19916;-58
2022/05/10 05:17:37;;;;;;;;;;;;;;;;;;6131593;23;19920;-56
2022/05/10 05:20:08;;;;;;;;;;;;;;;;;;6209004;23;20208;-56
2022/05/10 05:22:38;;;;;;;;;;;;;;;;;;6234067;22;20420;-57
2022/05/10 05:25:03;;;;;;;;;;;;;;;;;;6235514;22;19920;-57
2022/05/10 05:27:34;;;;;;;;;;;;;;;;;;6143534;23;19913;-57
2022/05/10 05:30:17;;;;;;;;;;;;;;;;;;6142323;23;20470;-57
2022/05/10 05:32:45;;;;;;;;;;;;;;;;;;6142189;23;19919;-58
2022/05/10 05:35:14;;;;;;;;;;;;;;;;;;6234401;22;19912;-57
2022/05/10 05:37:39;;;;;;;;;;;;;;;;;;6245423;22;19987;-57
2022/05/10 05:40:04;;;;;;;;;;;;;;;;;;6243540;22;20670;-58
2022/05/10 05:42:30;;;;;;;;;;;;;;;;;;6141424;23;19920;-57
2022/05/10 05:44:58;;;;;;;;;;;;;;;;;;6233926;22;20574;-57
2022/05/10 05:47:25;;;;;;;;;;;;;;;;;;6235425;22;19916;-57
2022/05/10 05:49:51;;;;;;;;;;;;;;;;;;6140912;23;20765;-57
2022/05/10 05:52:20;;;;;;;;;;;;;;;;;;6142197;23;20754;-57
2022/05/10 05:54:45;;;;;;;;;;;;;;;;;;6132795;23;19912;-58
2022/05/10 05:57:26;;;;;;;;;;;;;;;;;;6141462;23;19943;-58
2022/05/10 05:59:52;;;;;;;;;;;;;;;;;;6234691;22;19919;-56
2022/05/10 06:02:17;;;;;;;;;;;;;;;;;;6141781;23;19913;-57
2022/05/10 06:04:43;;;;;;;;;;;;;;;;;;6141864;23;19909;-58
2022/05/10 06:07:13;;;;;;;;;;;;;;;;;;6234885;22;19917;-57
2022/05/10 06:09:39;;;;;;;;;;;;;;;;;;6141445;23;19913;-57
2022/05/10 06:12:04;;;;;;;;;;;;;;;;;;6244239;22;19921;-57
2022/05/10 06:14:30;;;;;;;;;;;;;;;;;;6141083;23;19920;-59
2022/05/10 06:16:56;;;;;;;;;;;;;;;;;;6234619;22;19919;-58
2022/05/10 06:19:21;;;;;;;;;;;;;;;;;;6140633;23;20560;-58
2022/05/10 06:21:49;;;;;;;;;;;;;;;;;;6139605;23;19963;-58
2022/05/10 06:24:15;;;;;;;;;;;;;;;;;;6131945;23;19909;-58
2022/05/10 06:26:42;;;;;;;;;;;;;;;;;;6142482;23;19916;-59
2022/05/10 06:29:08;;;;;;;;;;;;;;;;;;6143081;23;19962;-59
2022/05/10 06:31:33;;;;;;;;;;;;;;;;;;6142987;23;19913;-58
2022/05/10 06:38:16;;;;;;;;;;;;;;;;;;6142679;23;20014;-57
2022/05/10 06:40:00;;;;;;;;;;;;;;;;;;6233518;22;19952;-59
2022/05/10 06:42:25;;;;;;;;;;;;;;;;;;6235254;22;20325;-58
2022/05/10 06:44:51;;;;;;;;;;;;;;;;;;6142123;23;20348;-58
2022/05/10 06:50:35;;;;;;;;;;;;;;;;;;6141461;23;19919;-58
2022/05/10 06:53:00;;;;;;;;;;;;;;;;;;6130723;23;19917;-59
2022/05/10 06:58:17;;;;;;;;;;;;;;;;;;6141011;23;19912;-59
2022/05/10 07:00:45;;;;;;;;;;;;;;;;;;6235782;22;19930;-58
2022/05/10 07:03:18;;;;;;;;;;;;;;;;;;6142017;23;19918;-59
2022/05/10 07:08:39;;;;;;;;;;;;;;;;;;6230750;22;19913;-60
2022/05/10 07:11:06;;;;;;;;;;;;;;;;;;6141766;23;19908;-60
2022/05/10 07:13:36;;;;;;;;;;;;;;;;;;6266118;22;19919;-59
2022/05/10 07:16:04;;;;;;;;;;;;;;;;;;6267781;22;19959;-59
2022/05/10 07:18:32;;;;;;;;;;;;;;;;;;6232123;22;19911;-59
2022/05/10 07:20:57;;;;;;;;;;;;;;;;;;6230912;22;19930;-60
2022/05/10 07:23:26;;;;;;;;;;;;;;;;;;6267545;22;19986;-59
2022/05/10 07:25:51;;;;;;;;;;;;;;;;;;6269303;22;20228;-60
2022/05/10 07:28:16;;;;;;;;;;;;;;;;;;6269051;22;20072;-59
2022/05/10 07:30:41;;;;;;;;;;;;;;;;;;6258635;22;19950;-60
2022/05/10 07:33:12;;;;;;;;;;;;;;;;;;6267845;22;19907;-59
2022/05/10 07:38:58;;;;;;;;;;;;;;;;;;6268801;22;19962;-59
2022/05/10 07:41:24;;;;;;;;;;;;;;;;;;6259059;22;19954;-60
2022/05/10 07:43:50;;;;;;;;;;;;;;;;;;6255037;22;19942;-60
2022/05/10 07:46:17;;;;;;;;;;;;;;;;;;6229459;22;19918;-60
2022/05/10 07:48:43;;;;;;;;;;;;;;;;;;6266961;22;20022;-59
2022/05/10 07:51:08;;;;;;;;;;;;;;;;;;6255249;22;19908;-59
2022/05/10 07:53:38;;;;;;;;;;;;;;;;;;6254666;22;19907;-58
2022/05/10 07:56:06;;;;;;;;;;;;;;;;;;6254599;22;19911;-62
2022/05/10 07:58:32;;;;;;;;;;;;;;;;;;6227007;22;19919;-59
2022/05/10 08:00:59;;;;;;;;;;;;;;;;;;6266874;22;19911;-58
2022/05/10 08:03:25;;;;;;;;;;;;;;;;;;6266268;22;19919;-59
2022/05/10 08:05:54;;;;;;;;;;;;;;;;;;6264173;22;20322;-59
2022/05/10 08:08:20;;;;;;;;;;;;;;;;;;6229121;22;19915;-59
2022/05/10 08:10:45;;;;;;;;;;;;;;;;;;6256119;22;19915;-59
2022/05/10 08:13:11;;;;;;;;;;;;;;;;;;6264473;22;19942;-59
2022/05/10 08:15:37;;;;;;;;;;;;;;;;;;6230148;22;20359;-59
2022/05/10 08:18:04;;;;;;;;;;;;;;;;;;6264761;22;20389;-58
2022/05/10 08:20:30;;;;;;;;;;;;;;;;;;6265764;22;20090;-59
2022/05/10 08:22:55;;;;;;;;;;;;;;;;;;6252780;22;20246;-59
2022/05/10 08:25:20;;;;;;;;;;;;;;;;;;6264673;22;19949;-59
2022/05/10 08:27:48;;;;;;;;;;;;;;;;;;6266097;22;20422;-59
2022/05/10 08:30:13;;;;;;;;;;;;;;;;;;6254716;22;19930;-59
2022/05/10 08:32:39;;;;;;;;;;;;;;;;;;6267433;22;20331;-58
2022/05/10 08:35:05;;;;;;;;;;;;;;;;;;6266945;22;19961;-60
2022/05/10 08:37:32;;;;;;;;;;;;;;;;;;6265856;22;20582;-58
2022/05/10 08:39:59;;;;;;;;;;;;;;;;;;6256793;22;19907;-58
2022/05/10 08:42:24;;;;;;;;;;;;;;;;;;6229512;22;20351;-59
2022/05/10 08:44:49;;;;;;;;;;;;;;;;;;6230287;22;19915;-60
2022/05/10 08:47:15;;;;;;;;;;;;;;;;;;6255259;22;20350;-59
2022/05/10 08:49:40;;;;;;;;;;;;;;;;;;6253487;22;19911;-59
2022/05/10 08:52:06;;;;;;;;;;;;;;;;;;6255752;22;19911;-58
2022/05/10 08:54:32;;;;;;;;;;;;;;;;;;6228534;22;19907;-61
2022/05/10 08:57:00;;;;;;;;;;;;;;;;;;6255980;22;19922;-58
2022/05/10 08:59:27;;;;;;;;;;;;;;;;;;6229983;22;19911;-58
2022/05/10 09:01:53;;;;;;;;;;;;;;;;;;6256615;22;20298;-59
2022/05/10 09:04:18;;;;;;;;;;;;;;;;;;6252407;22;19917;-59
2022/05/10 09:06:43;;;;;;;;;;;;;;;;;;6254392;22;20133;-60
2022/05/10 09:09:11;;;;;;;;;;;;;;;;;;6254069;22;19911;-60
2022/05/10 09:11:36;;;;;;;;;;;;;;;;;;6250416;22;19911;-59
2022/05/10 09:14:04;;;;;;;;;;;;;;;;;;6140907;23;20281;-60
2022/05/10 09:16:30;;;;;;;;;;;;;;;;;;6207212;23;20031;-61
2022/05/10 09:18:57;;;;;;;;;;;;;;;;;;6130821;23;19983;-60
2022/05/10 09:21:25;;;;;;;;;;;;;;;;;;6130672;23;20489;-59
2022/05/10 09:23:54;;;;;;;;;;;;;;;;;;6242283;22;19917;-59
2022/05/10 09:26:19;;;;;;;;;;;;;;;;;;6132334;23;20012;-59
2022/05/10 09:28:47;;;;;;;;;;;;;;;;;;6140298;23;19999;-59
2022/05/10 09:36:43;;;;;;;;;;;;;;;;;;6232605;22;19920;-59
2022/05/10 09:39:09;;;;;;;;;;;;;;;;;;6231183;22;19912;-58
2022/05/10 09:41:34;;;;;;;;;;;;;;;;;;6231535;22;20384;-61
2022/05/10 09:43:59;;;;;;;;;;;;;;;;;;6131786;23;20473;-60
2022/05/10 09:46:27;;;;;;;;;;;;;;;;;;6234571;22;20009;-60
2022/05/10 09:48:55;;;;;;;;;;;;;;;;;;6140596;23;19923;-60
2022/05/10 09:51:26;;;;;;;;;;;;;;;;;;6140948;23;19909;-58
2022/05/10 09:53:51;;;;;;;;;;;;;;;;;;6232536;22;19917;-59
2022/05/10 09:56:16;;;;;;;;;;;;;;;;;;6132326;23;19959;-59
2022/05/10 09:58:44;;;;;;;;;;;;;;;;;;6130178;23;19913;-59
2022/05/10 10:01:11;;;;;;;;;;;;;;;;;;6233751;22;19911;-60
2022/05/10 10:03:37;;;;;;;;;;;;;;;;;;6233849;22;19920;-59
2022/05/10 10:06:03;;;;;;;;;;;;;;;;;;6231629;22;19920;-60
2022/05/10 10:08:28;;;;;;;;;;;;;;;;;;6141084;23;19947;-59
2022/05/10 10:10:54;;;;;;;;;;;;;;;;;;6231612;22;19935;-60
2022/05/10 10:13:22;;;;;;;;;;;;;;;;;;6239721;22;19920;-60
2022/05/10 10:15:49;;;;;;;;;;;;;;;;;;6204196;22;19920;-59
2022/05/10 10:18:17;;;;;;;;;;;;;;;;;;6124747;23;20305;-60
2022/05/10 10:20:43;;;;;;;;;;;;;;;;;;6128291;23;19966;-60
2022/05/10 10:23:11;;;;;;;;;;;;;;;;;;6231009;22;19912;-61
2022/05/10 10:25:37;;;;;;;;;;;;;;;;;;6205640;23;19925;-60
2022/05/10 10:28:04;;;;;;;;;;;;;;;;;;6232968;22;19913;-58
2022/05/10 10:30:29;;;;;;;;;;;;;;;;;;6204918;23;19920;-59
2022/05/10 10:32:57;;;;;;;;;;;;;;;;;;6242606;22;19912;-59
2022/05/10 10:35:22;;;;;;;;;;;;;;;;;;6137196;23;19923;-59
2022/05/10 10:37:48;;;;;;;;;;;;;;;;;;6233781;22;19912;-58
2022/05/10 10:40:13;;;;;;;;;;;;;;;;;;6205648;23;20370;-58
2022/05/10 10:42:39;;;;;;;;;;;;;;;;;;6232252;22;19909;-59
2022/05/10 10:45:06;;;;;;;;;;;;;;;;;;6231090;22;19921;-59
2022/05/10 10:47:34;;;;;;;;;;;;;;;;;;6205237;23;20363;-59
2022/05/10 10:50:02;;;;;;;;;;;;;;;;;;6242600;22;19920;-59
2022/05/10 10:52:31;;;;;;;;;;;;;;;;;;6232255;22;20771;-58
2022/05/10 10:54:56;;;;;;;;;;;;;;;;;;6232061;22;19915;-61
2022/05/10 10:57:24;;;;;;;;;;;;;;;;;;6232242;22;19923;-59
2022/05/10 10:59:50;;;;;;;;;;;;;;;;;;6128445;23;20658;-59
2022/05/10 11:02:18;;;;;;;;;;;;;;;;;;6139439;23;19913;-60
2022/05/10 11:04:46;;;;;;;;;;;;;;;;;;6231214;22;19971;-60
2022/05/10 11:07:11;;;;;;;;;;;;;;;;;;6127642;23;19923;-60
2022/05/10 11:09:36;;;;;;;;;;;;;;;;;;6139369;23;19916;-60
2022/05/10 11:12:02;;;;;;;;;;;;;;;;;;6226625;22;20043;-60
2022/05/10 11:14:30;;;;;;;;;;;;;;;;;;6267072;22;19907;-59
2022/05/10 11:16:55;;;;;;;;;;;;;;;;;;6255488;22;19918;-58
2022/05/10 11:19:20;;;;;;;;;;;;;;;;;;6254150;22;20564;-60
2022/05/10 11:21:48;;;;;;;;;;;;;;;;;;6264250;22;19930;-58
2022/05/10 11:24:15;;;;;;;;;;;;;;;;;;6265208;22;20378;-58
2022/05/10 11:26:41;;;;;;;;;;;;;;;;;;6266002;22;19945;-60
2022/05/10 11:29:06;;;;;;;;;;;;;;;;;;6255999;22;19911;-60
2022/05/10 11:31:33;;;;;;;;;;;;;;;;;;6257820;22;19979;-60
2022/05/10 11:33:58;;;;;;;;;;;;;;;;;;6252267;22;20330;-60
2022/05/10 11:36:24;;;;;;;;;;;;;;;;;;6250969;22;19911;-60
2022/05/10 11:38:52;;;;;;;;;;;;;;;;;;6263918;22;19911;-58
2022/05/10 11:41:18;;;;;;;;;;;;;;;;;;6263532;22;19923;-60
2022/05/10 11:43:47;;;;;;;;;;;;;;;;;;6251588;22;19907;-60
2022/05/10 11:46:15;;;;;;;;;;;;;;;;;;6264916;22;20362;-60
2022/05/10 11:48:40;;;;;;;;;;;;;;;;;;6251123;22;20170;-58
2022/05/10 11:53:55;;;;;;;;;;;;;;;;;;6253893;22;20378;-60
2022/05/10 11:56:24;;;;;;;;;;;;;;;;;;6266793;22;20499;-60
2022/05/10 11:58:50;;;;;;;;;;;;;;;;;;6255549;22;19918;-60
2022/05/10 12:01:15;;;;;;;;;;;;;;;;;;6253830;22;19907;-61
2022/05/10 12:03:42;;;;;;;;;;;;;;;;;;6267194;22;19919;-59
2022/05/10 12:06:07;;;;;;;;;;;;;;;;;;6254009;22;19918;-59
2022/05/10 12:08:32;;;;;;;;;;;;;;;;;;6264556;22;20069;-59
2022/05/10 12:10:58;;;;;;;;;;;;;;;;;;6227310;22;20384;-59
2022/05/10 12:21:19;;;;;;;;;;;;;;;;;;6154512;22;20351;-60
2022/05/10 12:21:38;;;;;;;;;;;;;;;;;;6132440;23;19912;-59
2022/05/10 12:24:03;;;;;;;;;;;;;;;;;;6131728;23;19908;-60
2022/05/10 12:26:29;;;;;;;;;;;;;;;;;;6130694;23;20394;-59
2022/05/10 12:28:56;;;;;;;;;;;;;;;;;;6141421;23;19912;-60
2022/05/10 12:31:24;;;;;;;;;;;;;;;;;;6140351;23;19912;-61
2022/05/10 12:33:49;;;;;;;;;;;;;;;;;;6130160;23;19913;-61
2022/05/10 12:36:16;;;;;;;;;;;;;;;;;;6234023;22;19908;-61
2022/05/10 12:38:43;;;;;;;;;;;;;;;;;;6130699;23;19928;-60
2022/05/10 12:41:09;;;;;;;;;;;;;;;;;;6235555;22;19913;-61
2022/05/10 12:43:34;;;;;;;;;;;;;;;;;;6129652;23;19923;-63
2022/05/10 12:46:00;;;;;;;;;;;;;;;;;;6231139;22;19916;-62
2022/05/10 12:48:25;;;;;;;;;;;;;;;;;;6132043;23;19909;-60
2022/05/10 12:50:50;;;;;;;;;;;;;;;;;;6232502;22;19987;-61
2022/05/10 12:53:16;;;;;;;;;;;;;;;;;;6235421;22;20618;-59
2022/05/10 12:55:42;;;;;;;;;;;;;;;;;;6230564;22;20639;-61
2022/05/10 12:58:07;;;;;;;;;;;;;;;;;;6132436;23;20750;-61
2022/05/10 13:00:33;;;;;;;;;;;;;;;;;;6132845;23;19912;-61
2022/05/10 13:02:58;;;;;;;;;;;;;;;;;;6130409;23;20264;-59
2022/05/10 13:05:24;;;;;;;;;;;;;;;;;;6131816;23;19923;-57
2022/05/10 13:07:49;;;;;;;;;;;;;;;;;;6130945;23;20546;-59
2022/05/10 13:10:16;;;;;;;;;;;;;;;;;;6232776;22;19935;-60
2022/05/10 13:12:43;;;;;;;;;;;;;;;;;;6142010;23;19982;-61
2022/05/10 13:15:11;;;;;;;;;;;;;;;;;;6130588;22;19923;-63
2022/05/10 13:17:36;;;;;;;;;;;;;;;;;;6234543;22;19913;-61
2022/05/10 13:20:01;;;;;;;;;;;;;;;;;;6233157;22;19978;-60
2022/05/10 13:22:26;;;;;;;;;;;;;;;;;;6218615;23;19912;-60
2022/05/10 13:24:55;;;;;;;;;;;;;;;;;;6235303;22;19909;-59
2022/05/10 13:27:21;;;;;;;;;;;;;;;;;;6232275;22;19974;-60
2022/05/10 13:29:49;;;;;;;;;;;;;;;;;;6133271;23;19912;-60
2022/05/10 13:32:14;;;;;;;;;;;;;;;;;;6233108;22;19915;-60
2022/05/10 13:34:40;;;;;;;;;;;;;;;;;;6131770;23;19919;-59
2022/05/10 13:37:05;;;;;;;;;;;;;;;;;;6131989;23;19944;-62
2022/05/10 13:39:33;;;;;;;;;;;;;;;;;;6232506;22;19917;-61
2022/05/10 13:42:00;;;;;;;;;;;;;;;;;;6233668;22;19905;-60
2022/05/10 13:44:26;;;;;;;;;;;;;;;;;;6209316;23;19985;-60
2022/05/10 13:46:53;;;;;;;;;;;;;;;;;;6132166;23;20379;-60
2022/05/10 13:49:21;;;;;;;;;;;;;;;;;;6131358;23;19985;-61
2022/05/10 13:51:46;;;;;;;;;;;;;;;;;;6207754;23;20341;-60
2022/05/10 13:54:15;;;;;;;;;;;;;;;;;;6142891;23;19913;-61
2022/05/10 13:56:42;;;;;;;;;;;;;;;;;;6140100;23;19928;-61
2022/05/10 13:59:10;;;;;;;;;;;;;;;;;;6234882;22;19916;-60
2022/05/10 14:01:36;;;;;;;;;;;;;;;;;;6131520;23;19909;-60
2022/05/10 14:04:03;;;;;;;;;;;;;;;;;;6207924;22;19913;-59
2022/05/10 14:06:33;;;;;;;;;;;;;;;;;;6233695;22;19999;-62
2022/05/10 14:09:06;;;;;;;;;;;;;;;;;;6141123;23;20438;-63
2022/05/10 14:11:32;;;;;;;;;;;;;;;;;;6233249;22;19924;-59
2022/05/10 14:13:57;;;;;;;;;;;;;;;;;;6243371;22;19916;-60
2022/05/10 14:16:23;;;;;;;;;;;;;;;;;;6235258;22;20278;-61
2022/05/10 14:18:48;;;;;;;;;;;;;;;;;;6232664;22;19913;-61
2022/05/10 14:21:16;;;;;;;;;;;;;;;;;;6233619;22;19912;-59
2022/05/10 14:23:41;;;;;;;;;;;;;;;;;;6232789;22;19936;-58
2022/05/10 14:26:08;;;;;;;;;;;;;;;;;;6131504;23;20603;-61
2022/05/10 14:28:36;;;;;;;;;;;;;;;;;;6235696;22;20520;-58
2022/05/10 14:31:04;;;;;;;;;;;;;;;;;;6234321;22;20479;-57
2022/05/10 14:33:29;;;;;;;;;;;;;;;;;;6130672;23;19912;-58
2022/05/10 14:35:57;;;;;;;;;;;;;;;;;;6140819;23;20004;-58
2022/05/10 14:38:25;;;;;;;;;;;;;;;;;;6130122;23;20011;-59
2022/05/10 14:40:51;;;;;;;;;;;;;;;;;;6232189;22;19916;-59
2022/05/10 14:43:16;;;;;;;;;;;;;;;;;;6128920;23;20550;-57
2022/05/10 14:45:45;;;;;;;;;;;;;;;;;;6239449;22;20538;-57
2022/05/10 14:48:11;;;;;;;;;;;;;;;;;;6130141;23;19919;-57
2022/05/10 14:50:37;;;;;;;;;;;;;;;;;;6232298;22;20256;-57
2022/05/10 14:53:05;;;;;;;;;;;;;;;;;;6209053;22;19991;-58
2022/05/10 14:55:33;;;;;;;;;;;;;;;;;;6244235;22;20455;-57
2022/05/10 14:58:01;;;;;;;;;;;;;;;;;;6234881;22;19915;-57
2022/05/10 15:00:32;;;;;;;;;;;;;;;;;;6233369;22;19963;-57
2022/05/10 15:02:57;;;;;;;;;;;;;;;;;;6129297;23;19985;-59
2022/05/10 15:05:22;;;;;;;;;;;;;;;;;;6241779;22;20496;-58
2022/05/10 15:07:48;;;;;;;;;;;;;;;;;;6242870;22;20337;-58
2022/05/10 15:10:13;;;;;;;;;;;;;;;;;;6127241;23;19915;-56
2022/05/10 15:15:28;;;;;;;;;;;;;;;;;;6231311;22;20756;-57
2022/05/10 15:20:40;;;;;;;;;;;;;;;;;;6131660;23;19913;-58
2022/05/10 15:23:05;;;;;;;;;;;;;;;;;;6136531;23;20669;-57
2022/05/10 15:25:32;;;;;;;;;;;;;;;;;;6137150;23;19943;-56
2022/05/10 15:27:59;;;;;;;;;;;;;;;;;;6129823;23;20442;-58
2022/05/10 15:30:26;;;;;;;;;;;;;;;;;;6141083;23;19919;-59
2022/05/10 15:32:52;;;;;;;;;;;;;;;;;;6129101;23;19987;-58
2022/05/10 15:35:18;;;;;;;;;;;;;;;;;;6127391;23;19916;-58
2022/05/10 15:37:45;;;;;;;;;;;;;;;;;;6129736;23;19916;-59
2022/05/10 15:40:10;;;;;;;;;;;;;;;;;;6136948;23;19948;-57
2022/05/10 15:42:36;;;;;;;;;;;;;;;;;;6241098;22;19943;-58
2022/05/10 15:45:01;;;;;;;;;;;;;;;;;;6128519;23;19917;-57
2022/05/10 15:47:29;;;;;;;;;;;;;;;;;;6128508;23;19909;-58
2022/05/10 15:49:58;;;;;;;;;;;;;;;;;;6137446;23;19913;-57
2022/05/10 15:52:23;;;;;;;;;;;;;;;;;;6242375;22;19924;-57
2022/05/10 15:54:48;;;;;;;;;;;;;;;;;;6240887;22;19913;-59
2022/05/10 15:57:16;;;;;;;;;;;;;;;;;;6126862;23;19917;-57
2022/05/10 15:59:44;;;;;;;;;;;;;;;;;;6204631;23;19970;-57
2022/05/10 16:02:09;;;;;;;;;;;;;;;;;;6205601;23;19909;-58
2022/05/10 16:04:38;;;;;;;;;;;;;;;;;;6128329;23;19974;-58
2022/05/10 16:07:06;;;;;;;;;;;;;;;;;;6231415;22;19913;-58
2022/05/10 16:09:31;;;;;;;;;;;;;;;;;;6207386;23;19913;-58
2022/05/10 16:11:57;;;;;;;;;;;;;;;;;;6231783;22;20278;-57
2022/05/10 16:14:22;;;;;;;;;;;;;;;;;;6234073;22;20360;-58
2022/05/10 16:16:47;;;;;;;;;;;;;;;;;;6140941;23;19916;-58
2022/05/10 16:19:13;;;;;;;;;;;;;;;;;;6232901;22;20662;-57
2022/05/10 16:21:41;;;;;;;;;;;;;;;;;;6204177;22;20723;-60
2022/05/10 16:24:06;;;;;;;;;;;;;;;;;;6128411;23;19947;-58
2022/05/10 16:32:02;;;;;;;;;;;;;;;;;;6138908;23;19913;-58
2022/05/10 16:34:30;;;;;;;;;;;;;;;;;;6127149;23;19919;-58
2022/05/10 16:36:55;;;;;;;;;;;;;;;;;;6206449;23;19920;-59
2022/05/10 16:39:21;;;;;;;;;;;;;;;;;;6128355;23;20404;-58
2022/05/10 16:41:49;;;;;;;;;;;;;;;;;;6205855;22;19912;-57
2022/05/10 16:44:14;;;;;;;;;;;;;;;;;;6232112;22;19951;-55
2022/05/10 16:46:39;;;;;;;;;;;;;;;;;;6204990;23;19913;-57
2022/05/10 16:49:05;;;;;;;;;;;;;;;;;;6128434;23;19920;-58
2022/05/10 16:51:30;;;;;;;;;;;;;;;;;;6204210;23;19913;-59
2022/05/10 16:53:55;;;;;;;;;;;;;;;;;;6242108;22;19948;-59
2022/05/10 16:56:21;;;;;;;;;;;;;;;;;;6231831;22;20758;-58
2022/05/10 16:58:47;;;;;;;;;;;;;;;;;;6230362;22;19917;-59
2022/05/10 17:01:15;;;;;;;;;;;;;;;;;;6128829;23;19970;-58
2022/05/10 17:03:40;;;;;;;;;;;;;;;;;;6230738;22;19965;-58
2022/05/10 17:06:06;;;;;;;;;;;;;;;;;;6128166;23;19917;-57
2022/05/10 17:08:31;;;;;;;;;;;;;;;;;;6128638;23;19916;-58
2022/05/10 17:10:56;;;;;;;;;;;;;;;;;;6232685;22;19966;-59
2022/05/10 17:13:24;;;;;;;;;;;;;;;;;;6137904;22;19990;-59
2022/05/10 17:15:50;;;;;;;;;;;;;;;;;;6231754;22;20726;-58
2022/05/10 17:18:18;;;;;;;;;;;;;;;;;;6138393;23;20622;-58
2022/05/10 17:20:43;;;;;;;;;;;;;;;;;;6227564;22;19913;-59
2022/05/10 17:23:09;;;;;;;;;;;;;;;;;;6129174;22;19912;-58
2022/05/10 17:25:40;;;;;;;;;;;;;;;;;;6128105;23;20008;-59
2022/05/10 17:30:38;;;;;;;;;;;;;;;;;;6129696;23;19991;-58
2022/05/10 17:33:03;;;;;;;;;;;;;;;;;;6137945;23;19962;-59
2022/05/10 17:35:29;;;;;;;;;;;;;;;;;;6125298;23;20230;-59
2022/05/10 17:37:54;;;;;;;;;;;;;;;;;;6137187;23;20455;-60
2022/05/10 17:40:20;;;;;;;;;;;;;;;;;;6128384;23;19917;-60
2022/05/10 17:42:47;;;;;;;;;;;;;;;;;;6135728;23;19908;-61